sensor_id;sensor_type;location;lat;lon;timestamp;P1;durP1;ratioP1;P2;durP2;ratioP2
17197;SDS011;8715;51.010;6.812;2023-11-19T00:01:39;902.53;;;840.60;;
17197;SDS011;8715;51.010;6.812;2023-11-19T00:04:24;903.70;;;841.50;;
17197;SDS011;8715;51.010;6.812;2023-11-19T00:07:09;909.05;;;846.53;;
17197;SDS011;8715;51.010;6.812;2023-11-19T00:09:57;904.83;;;842.20;;
17197;SDS011;8715;51.010;6.812;2023-11-19T00:12:44;908.30;;;845.30;;
17197;SDS011;8715;51.010;6.812;2023-11-19T00:15:30;908.10;;;844.95;;
17197;SDS011;8715;51.010;6.812;2023-11-19T00:18:15;908.90;;;846.00;;
17197;SDS011;8715;51.010;6.812;2023-11-19T00:21:00;907.05;;;843.97;;
17197;SDS011;8715;51.010;6.812;2023-11-19T00:23:46;908.28;;;845.03;;
17197;SDS011;8715;51.010;6.812;2023-11-19T00:26:30;906.90;;;843.88;;
17197;SDS011;8715;51.010;6.812;2023-11-19T00:29:17;907.65;;;844.50;;
17197;SDS011;8715;51.010;6.812;2023-11-19T00:32:04;907.35;;;844.38;;
17197;SDS011;8715;51.010;6.812;2023-11-19T00:34:51;905.50;;;842.88;;
17197;SDS011;8715;51.010;6.812;2023-11-19T00:37:36;908.42;;;845.20;;
17197;SDS011;8715;51.010;6.812;2023-11-19T00:40:21;906.38;;;843.47;;
17197;SDS011;8715;51.010;6.812;2023-11-19T00:43:06;907.80;;;844.80;;
17197;SDS011;8715;51.010;6.812;2023-11-19T00:45:52;907.13;;;844.15;;
17197;SDS011;8715;51.010;6.812;2023-11-19T00:48:37;908.53;;;845.38;;
17197;SDS011;8715;51.010;6.812;2023-11-19T00:51:22;903.20;;;840.72;;
17197;SDS011;8715;51.010;6.812;2023-11-19T00:54:07;906.17;;;843.33;;
17197;SDS011;8715;51.010;6.812;2023-11-19T00:56:52;901.88;;;839.60;;
17197;SDS011;8715;51.010;6.812;2023-11-19T00:59:37;905.83;;;843.15;;
17197;SDS011;8715;51.010;6.812;2023-11-19T01:02:24;909.13;;;846.20;;
17197;SDS011;8715;51.010;6.812;2023-11-19T01:05:09;906.65;;;843.83;;
17197;SDS011;8715;51.010;6.812;2023-11-19T01:07:58;909.53;;;846.58;;
17197;SDS011;8715;51.010;6.812;2023-11-19T01:10:43;908.08;;;845.28;;
17197;SDS011;8715;51.010;6.812;2023-11-19T01:13:28;905.00;;;842.33;;
17197;SDS011;8715;51.010;6.812;2023-11-19T01:16:13;904.40;;;841.97;;
17197;SDS011;8715;51.010;6.812;2023-11-19T01:18:59;907.55;;;845.08;;
17197;SDS011;8715;51.010;6.812;2023-11-19T01:21:48;907.42;;;844.88;;
17197;SDS011;8715;51.010;6.812;2023-11-19T01:24:33;907.00;;;844.35;;
17197;SDS011;8715;51.010;6.812;2023-11-19T01:27:18;908.33;;;845.22;;
17197;SDS011;8715;51.010;6.812;2023-11-19T01:30:03;902.95;;;840.47;;
17197;SDS011;8715;51.010;6.812;2023-11-19T01:32:50;906.55;;;843.75;;
17197;SDS011;8715;51.010;6.812;2023-11-19T01:35:36;903.70;;;841.13;;
17197;SDS011;8715;51.010;6.812;2023-11-19T01:38:23;903.13;;;840.90;;
17197;SDS011;8715;51.010;6.812;2023-11-19T01:41:08;904.05;;;841.60;;
17197;SDS011;8715;51.010;6.812;2023-11-19T01:43:53;907.95;;;844.78;;
17197;SDS011;8715;51.010;6.812;2023-11-19T01:46:40;905.05;;;842.38;;
17197;SDS011;8715;51.010;6.812;2023-11-19T01:49:25;905.03;;;842.80;;
17197;SDS011;8715;51.010;6.812;2023-11-19T01:52:11;907.60;;;844.47;;
17197;SDS011;8715;51.010;6.812;2023-11-19T01:54:56;904.75;;;842.00;;
17197;SDS011;8715;51.010;6.812;2023-11-19T01:57:42;905.55;;;842.80;;
17197;SDS011;8715;51.010;6.812;2023-11-19T02:00:27;902.42;;;840.17;;
17197;SDS011;8715;51.010;6.812;2023-11-19T02:03:12;907.78;;;844.55;;
17197;SDS011;8715;51.010;6.812;2023-11-19T02:05:57;905.97;;;843.10;;
17197;SDS011;8715;51.010;6.812;2023-11-19T02:08:44;903.40;;;840.97;;
17197;SDS011;8715;51.010;6.812;2023-11-19T02:11:29;905.63;;;842.72;;
17197;SDS011;8715;51.010;6.812;2023-11-19T02:14:14;908.25;;;844.80;;
17197;SDS011;8715;51.010;6.812;2023-11-19T02:16:59;911.22;;;847.63;;
17197;SDS011;8715;51.010;6.812;2023-11-19T02:19:44;911.45;;;847.67;;
17197;SDS011;8715;51.010;6.812;2023-11-19T02:22:29;914.25;;;850.17;;
17197;SDS011;8715;51.010;6.812;2023-11-19T02:25:17;912.78;;;849.15;;
17197;SDS011;8715;51.010;6.812;2023-11-19T02:28:06;909.13;;;845.13;;
17197;SDS011;8715;51.010;6.812;2023-11-19T02:30:51;908.95;;;845.15;;
17197;SDS011;8715;51.010;6.812;2023-11-19T02:33:37;911.47;;;847.83;;
17197;SDS011;8715;51.010;6.812;2023-11-19T02:36:22;901.13;;;838.25;;
17197;SDS011;8715;51.010;6.812;2023-11-19T02:39:07;905.85;;;842.55;;
17197;SDS011;8715;51.010;6.812;2023-11-19T02:41:56;914.92;;;850.58;;
17197;SDS011;8715;51.010;6.812;2023-11-19T02:44:44;909.17;;;845.80;;
17197;SDS011;8715;51.010;6.812;2023-11-19T02:50:14;905.13;;;841.97;;
17197;SDS011;8715;51.010;6.812;2023-11-19T02:52:59;902.63;;;839.90;;
17197;SDS011;8715;51.010;6.812;2023-11-19T02:55:44;903.08;;;840.28;;
17197;SDS011;8715;51.010;6.812;2023-11-19T02:58:33;899.35;;;836.65;;
17197;SDS011;8715;51.010;6.812;2023-11-19T03:01:22;911.15;;;847.47;;
17197;SDS011;8715;51.010;6.812;2023-11-19T03:04:13;904.72;;;842.00;;
17197;SDS011;8715;51.010;6.812;2023-11-19T03:07:00;906.45;;;843.60;;
17197;SDS011;8715;51.010;6.812;2023-11-19T03:09:45;908.67;;;845.60;;
17197;SDS011;8715;51.010;6.812;2023-11-19T03:12:30;904.65;;;841.42;;
17197;SDS011;8715;51.010;6.812;2023-11-19T03:15:15;902.55;;;839.90;;
17197;SDS011;8715;51.010;6.812;2023-11-19T03:18:02;908.78;;;845.50;;
17197;SDS011;8715;51.010;6.812;2023-11-19T03:20:48;903.58;;;840.60;;
17197;SDS011;8715;51.010;6.812;2023-11-19T03:23:33;910.60;;;847.00;;
17197;SDS011;8715;51.010;6.812;2023-11-19T03:26:18;905.65;;;842.33;;
17197;SDS011;8715;51.010;6.812;2023-11-19T03:29:03;907.60;;;843.20;;
17197;SDS011;8715;51.010;6.812;2023-11-19T03:31:48;907.90;;;844.40;;
17197;SDS011;8715;51.010;6.812;2023-11-19T03:34:35;908.22;;;844.60;;
17197;SDS011;8715;51.010;6.812;2023-11-19T03:37:20;912.72;;;848.40;;
17197;SDS011;8715;51.010;6.812;2023-11-19T03:40:05;911.40;;;847.08;;
17197;SDS011;8715;51.010;6.812;2023-11-19T03:42:51;909.63;;;845.42;;
17197;SDS011;8715;51.010;6.812;2023-11-19T03:45:36;906.17;;;842.25;;
17197;SDS011;8715;51.010;6.812;2023-11-19T03:48:20;913.20;;;848.58;;
17197;SDS011;8715;51.010;6.812;2023-11-19T03:51:07;911.08;;;846.65;;
17197;SDS011;8715;51.010;6.812;2023-11-19T03:53:52;909.05;;;844.75;;
17197;SDS011;8715;51.010;6.812;2023-11-19T03:56:37;911.47;;;846.85;;
17197;SDS011;8715;51.010;6.812;2023-11-19T03:59:22;911.63;;;847.25;;
17197;SDS011;8715;51.010;6.812;2023-11-19T04:02:07;906.67;;;842.63;;
17197;SDS011;8715;51.010;6.812;2023-11-19T04:04:53;906.55;;;842.60;;
17197;SDS011;8715;51.010;6.812;2023-11-19T04:07:39;905.17;;;840.97;;
17197;SDS011;8715;51.010;6.812;2023-11-19T04:10:24;911.28;;;846.88;;
17197;SDS011;8715;51.010;6.812;2023-11-19T04:13:09;907.95;;;843.83;;
17197;SDS011;8715;51.010;6.812;2023-11-19T04:15:54;910.72;;;846.35;;
17197;SDS011;8715;51.010;6.812;2023-11-19T04:18:39;910.42;;;846.17;;
17197;SDS011;8715;51.010;6.812;2023-11-19T04:21:25;905.20;;;841.55;;
17197;SDS011;8715;51.010;6.812;2023-11-19T04:24:11;904.15;;;840.55;;
17197;SDS011;8715;51.010;6.812;2023-11-19T04:26:57;909.63;;;845.67;;
17197;SDS011;8715;51.010;6.812;2023-11-19T04:29:43;907.25;;;843.70;;
17197;SDS011;8715;51.010;6.812;2023-11-19T04:32:29;908.03;;;844.15;;
17197;SDS011;8715;51.010;6.812;2023-11-19T04:35:14;906.78;;;843.60;;
17197;SDS011;8715;51.010;6.812;2023-11-19T04:37:59;906.05;;;842.72;;
17197;SDS011;8715;51.010;6.812;2023-11-19T04:40:45;906.42;;;843.25;;
17197;SDS011;8715;51.010;6.812;2023-11-19T04:43:30;905.92;;;842.97;;
17197;SDS011;8715;51.010;6.812;2023-11-19T04:46:15;902.90;;;839.60;;
17197;SDS011;8715;51.010;6.812;2023-11-19T04:49:00;910.83;;;847.25;;
17197;SDS011;8715;51.010;6.812;2023-11-19T04:51:45;904.03;;;841.33;;
17197;SDS011;8715;51.010;6.812;2023-11-19T04:54:31;904.83;;;841.85;;
17197;SDS011;8715;51.010;6.812;2023-11-19T04:57:18;908.25;;;844.67;;
17197;SDS011;8715;51.010;6.812;2023-11-19T05:00:03;901.55;;;838.28;;
17197;SDS011;8715;51.010;6.812;2023-11-19T05:02:48;905.53;;;842.05;;
17197;SDS011;8715;51.010;6.812;2023-11-19T05:05:34;908.58;;;845.45;;
17197;SDS011;8715;51.010;6.812;2023-11-19T05:08:18;901.50;;;838.17;;
17197;SDS011;8715;51.010;6.812;2023-11-19T05:11:04;899.67;;;837.22;;
17197;SDS011;8715;51.010;6.812;2023-11-19T05:13:51;903.40;;;840.92;;
17197;SDS011;8715;51.010;6.812;2023-11-19T05:16:36;903.22;;;840.88;;
17197;SDS011;8715;51.010;6.812;2023-11-19T05:19:20;899.25;;;837.25;;
17197;SDS011;8715;51.010;6.812;2023-11-19T05:22:06;905.67;;;843.20;;
17197;SDS011;8715;51.010;6.812;2023-11-19T05:24:51;900.40;;;838.33;;
17197;SDS011;8715;51.010;6.812;2023-11-19T05:27:36;901.83;;;839.33;;
17197;SDS011;8715;51.010;6.812;2023-11-19T05:30:22;904.75;;;841.92;;
17197;SDS011;8715;51.010;6.812;2023-11-19T05:33:07;900.38;;;838.42;;
17197;SDS011;8715;51.010;6.812;2023-11-19T05:35:53;899.55;;;836.92;;
17197;SDS011;8715;51.010;6.812;2023-11-19T05:38:38;904.53;;;841.85;;
17197;SDS011;8715;51.010;6.812;2023-11-19T05:41:23;900.50;;;838.33;;
17197;SDS011;8715;51.010;6.812;2023-11-19T05:44:08;903.25;;;841.22;;
17197;SDS011;8715;51.010;6.812;2023-11-19T05:46:55;906.42;;;843.85;;
17197;SDS011;8715;51.010;6.812;2023-11-19T05:49:40;901.50;;;839.65;;
17197;SDS011;8715;51.010;6.812;2023-11-19T05:52:25;900.95;;;838.63;;
17197;SDS011;8715;51.010;6.812;2023-11-19T05:55:11;899.97;;;837.80;;
17197;SDS011;8715;51.010;6.812;2023-11-19T05:57:57;905.05;;;842.42;;
17197;SDS011;8715;51.010;6.812;2023-11-19T06:00:42;894.50;;;833.15;;
17197;SDS011;8715;51.010;6.812;2023-11-19T06:03:28;903.00;;;840.60;;
17197;SDS011;8715;51.010;6.812;2023-11-19T06:06:14;903.63;;;841.47;;
17197;SDS011;8715;51.010;6.812;2023-11-19T06:08:58;901.35;;;838.85;;
17197;SDS011;8715;51.010;6.812;2023-11-19T06:11:45;896.17;;;834.40;;
17197;SDS011;8715;51.010;6.812;2023-11-19T06:14:31;901.13;;;838.95;;
17197;SDS011;8715;51.010;6.812;2023-11-19T06:17:16;901.55;;;839.50;;
17197;SDS011;8715;51.010;6.812;2023-11-19T06:20:03;897.40;;;835.63;;
17197;SDS011;8715;51.010;6.812;2023-11-19T06:22:49;897.83;;;836.30;;
17197;SDS011;8715;51.010;6.812;2023-11-19T06:25:34;897.25;;;835.53;;
17197;SDS011;8715;51.010;6.812;2023-11-19T06:28:19;898.83;;;836.90;;
17197;SDS011;8715;51.010;6.812;2023-11-19T06:31:04;899.50;;;837.65;;
17197;SDS011;8715;51.010;6.812;2023-11-19T06:33:49;905.53;;;842.95;;
17197;SDS011;8715;51.010;6.812;2023-11-19T06:36:36;899.22;;;836.85;;
17197;SDS011;8715;51.010;6.812;2023-11-19T06:39:22;901.65;;;839.63;;
17197;SDS011;8715;51.010;6.812;2023-11-19T06:42:07;897.92;;;835.67;;
17197;SDS011;8715;51.010;6.812;2023-11-19T06:44:52;900.08;;;837.83;;
17197;SDS011;8715;51.010;6.812;2023-11-19T06:47:37;902.67;;;840.45;;
17197;SDS011;8715;51.010;6.812;2023-11-19T06:50:22;901.25;;;840.08;;
17197;SDS011;8715;51.010;6.812;2023-11-19T06:53:09;900.75;;;838.63;;
17197;SDS011;8715;51.010;6.812;2023-11-19T06:55:54;895.97;;;834.58;;
17197;SDS011;8715;51.010;6.812;2023-11-19T06:58:40;898.58;;;836.17;;
17197;SDS011;8715;51.010;6.812;2023-11-19T07:01:25;897.40;;;836.00;;
17197;SDS011;8715;51.010;6.812;2023-11-19T07:04:11;903.30;;;841.45;;
17197;SDS011;8715;51.010;6.812;2023-11-19T07:06:55;897.63;;;836.20;;
17197;SDS011;8715;51.010;6.812;2023-11-19T07:09:42;897.00;;;835.38;;
17197;SDS011;8715;51.010;6.812;2023-11-19T07:12:27;901.65;;;839.40;;
17197;SDS011;8715;51.010;6.812;2023-11-19T07:15:12;897.58;;;836.47;;
17197;SDS011;8715;51.010;6.812;2023-11-19T07:17:57;899.65;;;837.97;;
17197;SDS011;8715;51.010;6.812;2023-11-19T07:20:42;897.83;;;836.65;;
17197;SDS011;8715;51.010;6.812;2023-11-19T07:23:30;896.83;;;835.63;;
17197;SDS011;8715;51.010;6.812;2023-11-19T07:26:18;897.85;;;836.08;;
17197;SDS011;8715;51.010;6.812;2023-11-19T07:29:03;896.65;;;835.40;;
17197;SDS011;8715;51.010;6.812;2023-11-19T07:31:51;895.75;;;834.28;;
17197;SDS011;8715;51.010;6.812;2023-11-19T07:34:36;895.42;;;833.85;;
17197;SDS011;8715;51.010;6.812;2023-11-19T07:37:21;897.58;;;836.15;;
17197;SDS011;8715;51.010;6.812;2023-11-19T07:40:07;897.97;;;836.40;;
17197;SDS011;8715;51.010;6.812;2023-11-19T07:42:53;898.45;;;836.28;;
17197;SDS011;8715;51.010;6.812;2023-11-19T07:45:39;898.53;;;836.40;;
17197;SDS011;8715;51.010;6.812;2023-11-19T07:48:23;897.97;;;836.38;;
17197;SDS011;8715;51.010;6.812;2023-11-19T07:51:10;903.63;;;840.58;;
17197;SDS011;8715;51.010;6.812;2023-11-19T07:53:55;900.08;;;838.28;;
17197;SDS011;8715;51.010;6.812;2023-11-19T07:56:41;901.85;;;840.35;;
17197;SDS011;8715;51.010;6.812;2023-11-19T07:59:27;898.80;;;837.10;;
17197;SDS011;8715;51.010;6.812;2023-11-19T08:02:12;899.67;;;837.92;;
17197;SDS011;8715;51.010;6.812;2023-11-19T08:04:58;898.70;;;836.45;;
17197;SDS011;8715;51.010;6.812;2023-11-19T08:07:43;903.08;;;840.67;;
17197;SDS011;8715;51.010;6.812;2023-11-19T08:10:28;902.78;;;840.63;;
17197;SDS011;8715;51.010;6.812;2023-11-19T08:13:13;905.83;;;843.60;;
17197;SDS011;8715;51.010;6.812;2023-11-19T08:15:59;894.05;;;832.15;;
17197;SDS011;8715;51.010;6.812;2023-11-19T08:18:45;896.72;;;834.97;;
17197;SDS011;8715;51.010;6.812;2023-11-19T08:21:29;902.33;;;840.10;;
17197;SDS011;8715;51.010;6.812;2023-11-19T08:24:15;899.30;;;837.05;;
17197;SDS011;8715;51.010;6.812;2023-11-19T08:26:59;903.67;;;841.15;;
17197;SDS011;8715;51.010;6.812;2023-11-19T08:29:45;903.22;;;840.67;;
17197;SDS011;8715;51.010;6.812;2023-11-19T08:32:31;904.60;;;842.15;;
17197;SDS011;8715;51.010;6.812;2023-11-19T08:35:16;907.88;;;844.33;;
17197;SDS011;8715;51.010;6.812;2023-11-19T08:38:01;903.17;;;840.47;;
17197;SDS011;8715;51.010;6.812;2023-11-19T08:40:46;907.97;;;844.95;;
17197;SDS011;8715;51.010;6.812;2023-11-19T08:43:31;910.25;;;846.53;;
17197;SDS011;8715;51.010;6.812;2023-11-19T08:46:16;905.15;;;841.75;;
17197;SDS011;8715;51.010;6.812;2023-11-19T08:49:03;906.17;;;842.95;;
17197;SDS011;8715;51.010;6.812;2023-11-19T08:51:49;905.17;;;841.17;;
17197;SDS011;8715;51.010;6.812;2023-11-19T08:54:33;907.13;;;843.78;;
17197;SDS011;8715;51.010;6.812;2023-11-19T08:57:19;904.35;;;841.13;;
17197;SDS011;8715;51.010;6.812;2023-11-19T09:00:04;905.20;;;841.80;;
17197;SDS011;8715;51.010;6.812;2023-11-19T09:02:51;907.92;;;844.17;;
17197;SDS011;8715;51.010;6.812;2023-11-19T09:05:38;905.70;;;841.65;;
17197;SDS011;8715;51.010;6.812;2023-11-19T09:08:23;908.92;;;844.72;;
17197;SDS011;8715;51.010;6.812;2023-11-19T09:11:08;907.35;;;843.28;;
17197;SDS011;8715;51.010;6.812;2023-11-19T09:13:53;912.85;;;848.17;;
17197;SDS011;8715;51.010;6.812;2023-11-19T09:16:38;907.53;;;842.67;;
17197;SDS011;8715;51.010;6.812;2023-11-19T09:19:23;911.83;;;846.97;;
17197;SDS011;8715;51.010;6.812;2023-11-19T09:22:11;911.17;;;846.50;;
17197;SDS011;8715;51.010;6.812;2023-11-19T09:24:56;910.92;;;845.97;;
17197;SDS011;8715;51.010;6.812;2023-11-19T09:27:43;909.15;;;844.47;;
17197;SDS011;8715;51.010;6.812;2023-11-19T09:30:28;915.78;;;849.97;;
17197;SDS011;8715;51.010;6.812;2023-11-19T09:33:13;912.95;;;847.10;;
17197;SDS011;8715;51.010;6.812;2023-11-19T09:35:58;913.65;;;848.35;;
17197;SDS011;8715;51.010;6.812;2023-11-19T09:38:44;916.15;;;849.83;;
17197;SDS011;8715;51.010;6.812;2023-11-19T09:41:30;914.85;;;848.88;;
17197;SDS011;8715;51.010;6.812;2023-11-19T09:44:15;911.60;;;845.60;;
17197;SDS011;8715;51.010;6.812;2023-11-19T09:47:02;918.88;;;851.97;;
17197;SDS011;8715;51.010;6.812;2023-11-19T09:49:47;918.92;;;852.28;;
17197;SDS011;8715;51.010;6.812;2023-11-19T09:52:33;914.65;;;848.15;;
17197;SDS011;8715;51.010;6.812;2023-11-19T09:55:19;919.13;;;851.95;;
17197;SDS011;8715;51.010;6.812;2023-11-19T09:58:05;916.97;;;849.90;;
17197;SDS011;8715;51.010;6.812;2023-11-19T10:00:50;920.33;;;852.72;;
17197;SDS011;8715;51.010;6.812;2023-11-19T10:03:37;917.05;;;850.67;;
17197;SDS011;8715;51.010;6.812;2023-11-19T10:06:23;915.45;;;848.35;;
17197;SDS011;8715;51.010;6.812;2023-11-19T10:09:11;912.45;;;846.63;;
17197;SDS011;8715;51.010;6.812;2023-11-19T10:11:58;914.00;;;847.65;;
17197;SDS011;8715;51.010;6.812;2023-11-19T10:14:43;922.15;;;855.20;;
17197;SDS011;8715;51.010;6.812;2023-11-19T10:17:29;913.97;;;847.58;;
17197;SDS011;8715;51.010;6.812;2023-11-19T10:20:14;915.33;;;848.53;;
17197;SDS011;8715;51.010;6.812;2023-11-19T10:22:59;912.72;;;846.08;;
17197;SDS011;8715;51.010;6.812;2023-11-19T10:25:44;917.42;;;850.38;;
17197;SDS011;8715;51.010;6.812;2023-11-19T10:28:34;919.70;;;852.95;;
17197;SDS011;8715;51.010;6.812;2023-11-19T10:31:23;920.47;;;853.08;;
17197;SDS011;8715;51.010;6.812;2023-11-19T10:34:14;919.63;;;852.25;;
17197;SDS011;8715;51.010;6.812;2023-11-19T10:37:08;921.10;;;853.65;;
17197;SDS011;8715;51.010;6.812;2023-11-19T10:39:54;923.13;;;855.58;;
17197;SDS011;8715;51.010;6.812;2023-11-19T10:42:39;917.22;;;850.33;;
17197;SDS011;8715;51.010;6.812;2023-11-19T10:45:26;917.35;;;850.13;;
17197;SDS011;8715;51.010;6.812;2023-11-19T10:48:11;915.53;;;848.28;;
17197;SDS011;8715;51.010;6.812;2023-11-19T10:50:56;918.13;;;850.60;;
17197;SDS011;8715;51.010;6.812;2023-11-19T10:53:41;915.55;;;848.85;;
17197;SDS011;8715;51.010;6.812;2023-11-19T10:56:29;920.38;;;853.10;;
17197;SDS011;8715;51.010;6.812;2023-11-19T10:59:15;914.70;;;847.35;;
17197;SDS011;8715;51.010;6.812;2023-11-19T11:02:03;920.08;;;851.95;;
17197;SDS011;8715;51.010;6.812;2023-11-19T11:04:50;923.47;;;855.35;;
17197;SDS011;8715;51.010;6.812;2023-11-19T11:07:36;922.20;;;854.95;;
17197;SDS011;8715;51.010;6.812;2023-11-19T11:10:21;917.42;;;850.22;;
17197;SDS011;8715;51.010;6.812;2023-11-19T11:13:10;918.05;;;851.22;;
17197;SDS011;8715;51.010;6.812;2023-11-19T11:15:56;917.33;;;850.67;;
17197;SDS011;8715;51.010;6.812;2023-11-19T11:18:43;916.13;;;849.15;;
17197;SDS011;8715;51.010;6.812;2023-11-19T11:21:28;918.28;;;851.50;;
17197;SDS011;8715;51.010;6.812;2023-11-19T11:24:19;924.45;;;857.17;;
17197;SDS011;8715;51.010;6.812;2023-11-19T11:27:12;917.00;;;850.97;;
17197;SDS011;8715;51.010;6.812;2023-11-19T11:30:03;923.45;;;855.85;;
17197;SDS011;8715;51.010;6.812;2023-11-19T11:32:51;912.70;;;846.38;;
17197;SDS011;8715;51.010;6.812;2023-11-19T11:35:44;918.30;;;851.85;;
17197;SDS011;8715;51.010;6.812;2023-11-19T11:38:34;918.92;;;852.45;;
17197;SDS011;8715;51.010;6.812;2023-11-19T11:41:22;918.65;;;852.58;;
17197;SDS011;8715;51.010;6.812;2023-11-19T11:44:08;912.13;;;846.08;;
17197;SDS011;8715;51.010;6.812;2023-11-19T11:46:56;916.25;;;849.67;;
17197;SDS011;8715;51.010;6.812;2023-11-19T11:49:40;915.25;;;849.13;;
17197;SDS011;8715;51.010;6.812;2023-11-19T11:52:27;918.28;;;851.83;;
17197;SDS011;8715;51.010;6.812;2023-11-19T11:55:14;915.05;;;849.03;;
17197;SDS011;8715;51.010;6.812;2023-11-19T11:57:59;919.38;;;852.72;;
17197;SDS011;8715;51.010;6.812;2023-11-19T12:00:45;917.28;;;850.65;;
17197;SDS011;8715;51.010;6.812;2023-11-19T12:03:31;913.55;;;847.55;;
17197;SDS011;8715;51.010;6.812;2023-11-19T12:06:16;913.50;;;847.05;;
17197;SDS011;8715;51.010;6.812;2023-11-19T12:09:06;916.00;;;849.13;;
17197;SDS011;8715;51.010;6.812;2023-11-19T12:11:51;921.95;;;854.95;;
17197;SDS011;8715;51.010;6.812;2023-11-19T12:15:01;915.75;;;849.55;;
17197;SDS011;8715;51.010;6.812;2023-11-19T12:17:49;916.70;;;850.05;;
17197;SDS011;8715;51.010;6.812;2023-11-19T12:20:34;918.63;;;851.67;;
17197;SDS011;8715;51.010;6.812;2023-11-19T12:23:21;918.40;;;851.17;;
17197;SDS011;8715;51.010;6.812;2023-11-19T12:26:08;924.92;;;857.60;;
17197;SDS011;8715;51.010;6.812;2023-11-19T12:28:57;919.88;;;852.92;;
17197;SDS011;8715;51.010;6.812;2023-11-19T12:31:43;924.50;;;856.67;;
17197;SDS011;8715;51.010;6.812;2023-11-19T12:34:29;921.55;;;854.47;;
17197;SDS011;8715;51.010;6.812;2023-11-19T12:37:14;918.75;;;851.65;;
17197;SDS011;8715;51.010;6.812;2023-11-19T12:39:59;918.90;;;852.05;;
17197;SDS011;8715;51.010;6.812;2023-11-19T12:42:45;920.80;;;854.05;;
17197;SDS011;8715;51.010;6.812;2023-11-19T12:45:34;916.78;;;850.10;;
17197;SDS011;8715;51.010;6.812;2023-11-19T12:48:19;915.60;;;849.30;;
17197;SDS011;8715;51.010;6.812;2023-11-19T12:51:04;918.05;;;851.20;;
17197;SDS011;8715;51.010;6.812;2023-11-19T12:53:51;915.35;;;849.40;;
17197;SDS011;8715;51.010;6.812;2023-11-19T12:56:37;915.13;;;848.47;;
17197;SDS011;8715;51.010;6.812;2023-11-19T12:59:26;910.22;;;844.60;;
17197;SDS011;8715;51.010;6.812;2023-11-19T13:02:12;915.15;;;849.20;;
17197;SDS011;8715;51.010;6.812;2023-11-19T13:04:57;916.38;;;849.95;;
17197;SDS011;8715;51.010;6.812;2023-11-19T13:07:42;913.38;;;847.85;;
17197;SDS011;8715;51.010;6.812;2023-11-19T13:10:27;917.15;;;850.63;;
17197;SDS011;8715;51.010;6.812;2023-11-19T13:13:12;911.90;;;846.40;;
17197;SDS011;8715;51.010;6.812;2023-11-19T13:16:02;916.75;;;850.63;;
17197;SDS011;8715;51.010;6.812;2023-11-19T13:18:49;911.88;;;846.17;;
17197;SDS011;8715;51.010;6.812;2023-11-19T13:21:35;919.58;;;853.67;;
17197;SDS011;8715;51.010;6.812;2023-11-19T13:24:20;918.35;;;852.90;;
17197;SDS011;8715;51.010;6.812;2023-11-19T13:27:06;917.10;;;850.90;;
17197;SDS011;8715;51.010;6.812;2023-11-19T13:29:50;918.47;;;852.95;;
17197;SDS011;8715;51.010;6.812;2023-11-19T13:32:37;909.30;;;844.40;;
17197;SDS011;8715;51.010;6.812;2023-11-19T13:35:22;911.78;;;846.42;;
17197;SDS011;8715;51.010;6.812;2023-11-19T13:38:07;911.35;;;846.40;;
17197;SDS011;8715;51.010;6.812;2023-11-19T13:40:52;909.22;;;844.08;;
17197;SDS011;8715;51.010;6.812;2023-11-19T13:43:38;914.42;;;848.92;;
17197;SDS011;8715;51.010;6.812;2023-11-19T13:46:23;912.08;;;846.58;;
17197;SDS011;8715;51.010;6.812;2023-11-19T13:49:09;914.88;;;849.33;;
17197;SDS011;8715;51.010;6.812;2023-11-19T13:51:54;916.35;;;850.72;;
17197;SDS011;8715;51.010;6.812;2023-11-19T13:54:40;916.15;;;849.30;;
17197;SDS011;8715;51.010;6.812;2023-11-19T13:57:25;916.28;;;850.42;;
17197;SDS011;8715;51.010;6.812;2023-11-19T14:00:10;912.08;;;846.53;;
17197;SDS011;8715;51.010;6.812;2023-11-19T14:02:56;914.25;;;848.50;;
17197;SDS011;8715;51.010;6.812;2023-11-19T14:05:43;910.65;;;844.80;;
17197;SDS011;8715;51.010;6.812;2023-11-19T14:08:32;915.28;;;849.35;;
17197;SDS011;8715;51.010;6.812;2023-11-19T14:11:17;918.70;;;852.50;;
17197;SDS011;8715;51.010;6.812;2023-11-19T14:14:02;911.40;;;846.03;;
17197;SDS011;8715;51.010;6.812;2023-11-19T14:16:47;914.60;;;849.42;;
17197;SDS011;8715;51.010;6.812;2023-11-19T14:19:32;911.78;;;846.40;;
17197;SDS011;8715;51.010;6.812;2023-11-19T14:22:19;915.40;;;849.58;;
17197;SDS011;8715;51.010;6.812;2023-11-19T14:25:04;914.88;;;849.42;;
17197;SDS011;8715;51.010;6.812;2023-11-19T14:27:50;914.97;;;849.95;;
17197;SDS011;8715;51.010;6.812;2023-11-19T14:30:35;911.63;;;846.58;;
17197;SDS011;8715;51.010;6.812;2023-11-19T14:33:20;913.25;;;847.92;;
17197;SDS011;8715;51.010;6.812;2023-11-19T14:36:05;910.08;;;845.75;;
17197;SDS011;8715;51.010;6.812;2023-11-19T14:38:52;912.88;;;847.97;;
17197;SDS011;8715;51.010;6.812;2023-11-19T14:41:37;912.90;;;847.60;;
17197;SDS011;8715;51.010;6.812;2023-11-19T14:44:23;913.90;;;848.72;;
17197;SDS011;8715;51.010;6.812;2023-11-19T14:47:08;909.13;;;844.60;;
17197;SDS011;8715;51.010;6.812;2023-11-19T14:49:54;913.38;;;848.05;;
17197;SDS011;8715;51.010;6.812;2023-11-19T14:52:39;903.80;;;840.08;;
17197;SDS011;8715;51.010;6.812;2023-11-19T14:55:25;909.83;;;844.88;;
17197;SDS011;8715;51.010;6.812;2023-11-19T14:58:10;915.53;;;850.33;;
17197;SDS011;8715;51.010;6.812;2023-11-19T15:00:55;913.08;;;848.50;;
17197;SDS011;8715;51.010;6.812;2023-11-19T15:03:40;907.72;;;843.53;;
17197;SDS011;8715;51.010;6.812;2023-11-19T15:06:25;911.60;;;847.55;;
17197;SDS011;8715;51.010;6.812;2023-11-19T15:09:11;912.97;;;848.45;;
17197;SDS011;8715;51.010;6.812;2023-11-19T15:12:01;909.80;;;845.80;;
17197;SDS011;8715;51.010;6.812;2023-11-19T15:14:46;911.35;;;847.33;;
17197;SDS011;8715;51.010;6.812;2023-11-19T15:17:31;911.05;;;846.88;;
17197;SDS011;8715;51.010;6.812;2023-11-19T15:20:16;910.05;;;845.88;;
17197;SDS011;8715;51.010;6.812;2023-11-19T15:23:02;909.45;;;845.15;;
17197;SDS011;8715;51.010;6.812;2023-11-19T15:25:47;910.38;;;846.13;;
17197;SDS011;8715;51.010;6.812;2023-11-19T15:28:34;904.10;;;840.47;;
17197;SDS011;8715;51.010;6.812;2023-11-19T15:31:19;904.78;;;841.33;;
17197;SDS011;8715;51.010;6.812;2023-11-19T15:34:04;899.88;;;837.05;;
17197;SDS011;8715;51.010;6.812;2023-11-19T15:36:50;906.08;;;842.42;;
17197;SDS011;8715;51.010;6.812;2023-11-19T15:39:35;906.90;;;844.00;;
17197;SDS011;8715;51.010;6.812;2023-11-19T15:42:20;897.88;;;835.53;;
17197;SDS011;8715;51.010;6.812;2023-11-19T15:45:08;899.05;;;837.15;;
17197;SDS011;8715;51.010;6.812;2023-11-19T15:47:53;900.58;;;838.65;;
17197;SDS011;8715;51.010;6.812;2023-11-19T15:50:38;902.20;;;839.67;;
17197;SDS011;8715;51.010;6.812;2023-11-19T15:53:23;905.13;;;842.42;;
17197;SDS011;8715;51.010;6.812;2023-11-19T15:56:09;900.97;;;838.92;;
17197;SDS011;8715;51.010;6.812;2023-11-19T15:58:54;900.30;;;838.03;;